createdAt,value
2017-11-27T00:00:41.565Z,4.93
2017-11-27T00:03:09.820Z,4.53
2017-11-27T00:05:38.103Z,5.70
2017-11-27T00:08:06.415Z,4.80
2017-11-27T00:10:34.662Z,5.57
2017-11-27T00:13:02.957Z,5.30
2017-11-27T00:15:31.210Z,5.03
2017-11-27T00:17:59.613Z,4.77
2017-11-27T00:20:27.849Z,4.40
2017-11-27T00:22:56.122Z,4.60
2017-11-27T00:25:24.372Z,5.17
2017-11-27T00:27:53.439Z,5.13
2017-11-27T00:30:21.681Z,4.57
2017-11-27T00:32:49.933Z,4.37
2017-11-27T00:35:18.968Z,4.67
2017-11-27T00:37:47.273Z,4.10
2017-11-27T00:40:15.745Z,4.57
2017-11-27T00:42:43.983Z,4.67
2017-11-27T00:45:12.277Z,4.70
2017-11-27T00:47:40.520Z,4.57
2017-11-27T00:50:08.778Z,4.80
2017-11-27T00:52:37.814Z,4.90
2017-11-27T00:55:06.057Z,5.00
2017-11-27T00:57:35.105Z,4.93
2017-11-27T01:00:03.370Z,4.37
2017-11-27T01:02:31.772Z,5.03
2017-11-27T01:05:00.023Z,5.13
2017-11-27T01:07:28.336Z,3.93
2017-11-27T01:09:56.589Z,4.77
2017-11-27T01:12:24.849Z,5.10
2017-11-27T01:14:53.122Z,5.30
2017-11-27T01:17:21.377Z,5.23
2017-11-27T01:19:50.429Z,5.50
2017-11-27T01:22:18.680Z,4.90
2017-11-27T01:24:46.990Z,5.00
2017-11-27T01:27:15.278Z,4.83
2017-11-27T01:29:43.524Z,4.80
2017-11-27T01:32:11.913Z,4.87
2017-11-27T01:34:40.162Z,4.70
2017-11-27T01:37:08.461Z,5.30
2017-11-27T01:39:36.721Z,4.10
2017-11-27T01:42:05.016Z,6.37
2017-11-27T01:44:33.401Z,4.70
2017-11-27T01:47:01.663Z,5.03
2017-11-27T01:49:29.954Z,4.50
2017-11-27T01:51:58.201Z,5.00
2017-11-27T01:54:26.457Z,5.00
2017-11-27T01:56:54.890Z,4.80
2017-11-27T01:59:23.134Z,4.10
2017-11-27T02:01:51.400Z,4.33
2017-11-27T02:04:20.057Z,5.70
2017-11-27T02:06:49.112Z,4.70
2017-11-27T02:09:17.378Z,5.80
2017-11-27T02:11:45.641Z,4.20
2017-11-27T02:14:13.922Z,4.60
2017-11-27T02:16:42.193Z,4.50
2017-11-27T02:19:10.453Z,4.57
2017-11-27T02:21:38.715Z,5.57
2017-11-27T02:24:07.777Z,5.30
2017-11-27T02:26:36.026Z,4.50
2017-11-27T02:29:04.281Z,5.40
2017-11-27T02:31:33.327Z,4.43
2017-11-27T02:34:01.580Z,4.23
2017-11-27T02:36:29.983Z,5.33
2017-11-27T02:38:58.233Z,5.37
2017-11-27T02:41:26.741Z,4.97
2017-11-27T02:43:54.989Z,4.73
2017-11-27T02:46:23.237Z,5.30
2017-11-27T02:48:52.392Z,5.90
2017-11-27T02:51:20.638Z,5.07
2017-11-27T02:53:48.917Z,5.53
2017-11-27T02:56:17.324Z,4.20
2017-11-27T02:58:45.606Z,5.70
2017-11-27T03:01:13.898Z,5.00
2017-11-27T03:03:42.918Z,5.63
2017-11-27T03:06:11.957Z,5.07
2017-11-27T03:08:40.247Z,5.53
2017-11-27T03:11:08.507Z,4.60
2017-11-27T03:13:36.803Z,4.80
2017-11-27T03:16:05.085Z,5.70
2017-11-27T03:18:33.347Z,5.40
2017-11-27T03:21:01.605Z,5.40
2017-11-27T03:23:29.873Z,4.70
2017-11-27T03:25:58.125Z,4.70
2017-11-27T03:28:27.384Z,5.80
2017-11-27T03:30:55.630Z,5.00
2017-11-27T03:33:23.913Z,4.57
2017-11-27T03:35:52.789Z,5.40
2017-11-27T03:38:21.033Z,4.37
2017-11-27T03:40:49.302Z,4.83
2017-11-27T03:43:18.325Z,5.70
2017-11-27T03:45:46.651Z,4.90
2017-11-27T03:48:14.901Z,4.90
2017-11-27T03:50:43.178Z,4.67
2017-11-27T03:53:11.425Z,4.23
2017-11-27T03:55:40.456Z,5.03
2017-11-27T03:58:08.727Z,4.50
2017-11-27T04:00:37.002Z,3.87
2017-11-27T04:03:05.266Z,4.53
2017-11-27T04:05:33.509Z,5.10
2017-11-27T04:08:02.545Z,3.83
2017-11-27T04:10:31.709Z,5.67
2017-11-27T04:13:00.723Z,4.73
2017-11-27T04:15:28.992Z,4.23
2017-11-27T04:17:58.042Z,4.43
2017-11-27T04:20:26.339Z,3.50
2017-11-27T04:22:54.591Z,4.60
2017-11-27T04:25:22.849Z,5.37
2017-11-27T04:27:51.120Z,4.63
2017-11-27T04:30:19.421Z,3.60
2017-11-27T04:32:47.708Z,4.90
2017-11-27T04:35:16.077Z,5.17
2017-11-27T04:37:44.324Z,3.50
2017-11-27T04:40:12.600Z,5.00
2017-11-27T04:42:40.853Z,5.00
2017-11-27T04:45:09.884Z,5.50
2017-11-27T04:47:38.145Z,4.40
2017-11-27T04:50:06.426Z,4.73
2017-11-27T04:52:34.675Z,4.47
2017-11-27T04:55:03.730Z,4.10
2017-11-27T04:57:32.098Z,5.00
2017-11-27T05:00:00.353Z,4.90
2017-11-27T05:02:28.645Z,5.00
2017-11-27T05:04:56.905Z,4.53
2017-11-27T05:07:25.213Z,4.67
2017-11-27T05:09:53.465Z,5.20
2017-11-27T05:12:21.753Z,5.37
2017-11-27T05:14:50.453Z,5.17
2017-11-27T05:17:20.125Z,4.30
2017-11-27T05:19:48.401Z,3.80
2017-11-27T05:22:16.653Z,4.20
2017-11-27T05:24:45.703Z,4.60
2017-11-27T05:27:13.995Z,4.20
2017-11-27T05:29:42.238Z,4.47
2017-11-27T05:32:10.511Z,4.17
2017-11-27T05:34:39.678Z,4.70
2017-11-27T05:37:08.737Z,5.20
2017-11-27T05:39:36.983Z,5.40
2017-11-27T05:42:05.254Z,5.00
2017-11-27T05:44:33.505Z,4.03
2017-11-27T05:47:02.584Z,3.83
2017-11-27T05:49:30.848Z,4.90
2017-11-27T05:51:59.211Z,3.90
2017-11-27T05:54:27.493Z,4.23
2017-11-27T05:56:55.742Z,5.00
2017-11-27T05:59:24.028Z,3.70
2017-11-27T06:01:52.297Z,4.70
2017-11-27T06:04:20.565Z,4.20
2017-11-27T06:06:48.828Z,4.93
2017-11-27T06:09:17.081Z,4.97
2017-11-27T06:11:45.379Z,3.73
2017-11-27T06:14:14.395Z,4.33
2017-11-27T06:16:42.713Z,3.67
2017-11-27T06:19:11.084Z,4.50
2017-11-27T06:21:39.328Z,4.43
2017-11-27T06:24:07.601Z,4.00
2017-11-27T06:26:35.853Z,4.57
2017-11-27T06:29:04.945Z,4.23
2017-11-27T06:31:33.973Z,3.53
2017-11-27T06:34:02.270Z,5.60
2017-11-27T06:36:30.660Z,5.50
2017-11-27T06:38:58.911Z,4.13
2017-11-27T06:41:27.333Z,4.67
2017-11-27T06:43:55.597Z,5.00
2017-11-27T06:46:23.882Z,5.70
2017-11-27T06:48:52.153Z,5.47
2017-11-27T06:51:20.440Z,5.43
2017-11-27T06:53:48.684Z,4.47
2017-11-27T06:56:16.949Z,4.43
2017-11-27T06:58:45.228Z,5.60
2017-11-27T07:01:14.338Z,5.63
2017-11-27T07:03:42.621Z,5.27
2017-11-27T07:06:10.905Z,5.00
2017-11-27T07:08:39.178Z,5.33
2017-11-27T07:11:07.446Z,5.40
2017-11-27T07:13:35.717Z,5.33
2017-11-27T07:16:03.987Z,10.30
2017-11-27T07:18:32.255Z,5.83
2017-11-27T07:21:00.558Z,5.07
2017-11-27T07:23:29.054Z,4.40
2017-11-27T07:25:58.145Z,5.20
2017-11-27T07:28:26.534Z,5.03
2017-11-27T07:30:54.782Z,4.20
2017-11-27T07:33:23.078Z,4.43
2017-11-27T07:35:51.324Z,4.23
2017-11-27T07:38:25.443Z,4.40
2017-11-27T07:40:53.890Z,5.47
2017-11-27T07:43:22.933Z,4.50
2017-11-27T07:45:51.192Z,5.23
2017-11-27T07:48:19.449Z,5.00
2017-11-27T07:50:47.722Z,4.53
2017-11-27T07:53:16.741Z,4.53
2017-11-27T07:55:45.007Z,5.37
2017-11-27T07:58:13.271Z,3.97
2017-11-27T08:00:42.309Z,4.40
2017-11-27T08:03:10.562Z,5.57
2017-11-27T08:05:38.834Z,4.90
2017-11-27T08:08:07.131Z,4.77
2017-11-27T08:10:35.388Z,4.77
2017-11-27T08:13:03.693Z,5.43
2017-11-27T08:15:31.953Z,4.90
2017-11-27T08:18:00.209Z,5.27
2017-11-27T08:20:28.481Z,5.43
2017-11-27T08:22:57.501Z,5.33
2017-11-27T08:25:25.781Z,5.00
2017-11-27T08:27:54.069Z,5.77
2017-11-27T08:30:22.345Z,5.00
2017-11-27T08:32:50.741Z,5.33
2017-11-27T08:35:18.986Z,4.67
2017-11-27T08:37:47.253Z,5.20
2017-11-27T08:40:15.515Z,5.20
2017-11-27T08:42:44.561Z,5.40
2017-11-27T08:45:12.942Z,5.30
2017-11-27T08:47:41.211Z,6.10
2017-11-27T08:50:09.487Z,4.40
2017-11-27T08:52:37.773Z,5.40
2017-11-27T08:55:06.050Z,13.03
2017-11-27T08:57:34.310Z,6.00
2017-11-27T09:00:02.710Z,5.07
2017-11-27T09:02:30.980Z,5.63
2017-11-27T09:04:59.258Z,4.83
2017-11-27T09:07:27.949Z,5.40
2017-11-27T09:09:56.201Z,4.53
2017-11-27T09:12:24.453Z,4.67
2017-11-27T09:14:52.721Z,5.20
2017-11-27T09:17:21.761Z,5.37
2017-11-27T09:19:50.153Z,5.37
2017-11-27T09:22:18.416Z,5.03
2017-11-27T09:24:46.661Z,4.77
2017-11-27T09:27:15.004Z,4.33
2017-11-27T09:29:44.768Z,4.13
2017-11-27T09:32:13.034Z,5.87
2017-11-27T09:34:41.302Z,4.50
2017-11-27T09:37:09.626Z,10.53
2017-11-27T09:39:37.901Z,4.83
2017-11-27T09:42:06.196Z,3.77
2017-11-27T09:44:34.482Z,4.17
2017-11-27T09:47:03.506Z,4.80
2017-11-27T09:49:31.827Z,5.33
2017-11-27T09:52:00.102Z,4.50
2017-11-27T09:54:28.359Z,5.40
2017-11-27T09:56:56.716Z,4.23
2017-11-27T09:59:24.964Z,4.33
2017-11-27T10:01:53.218Z,4.70
2017-11-27T10:04:21.606Z,5.63
2017-11-27T10:06:49.867Z,3.93
2017-11-27T10:09:18.132Z,4.13
2017-11-27T10:11:46.411Z,4.30
2017-11-27T10:14:14.650Z,4.20
2017-11-27T10:16:42.925Z,3.53
2017-11-27T10:19:11.181Z,3.70
2017-11-27T10:21:39.442Z,5.00
2017-11-27T10:24:07.718Z,3.83
2017-11-27T10:26:35.962Z,3.70
2017-11-27T10:29:04.242Z,3.97
2017-11-27T10:31:32.501Z,5.00
2017-11-27T10:34:00.766Z,3.60
2017-11-27T10:36:29.036Z,5.60
2017-11-27T10:38:58.058Z,3.43
2017-11-27T10:41:26.337Z,3.50
2017-11-27T10:43:54.597Z,3.47
2017-11-27T10:46:22.889Z,3.63
2017-11-27T10:48:51.143Z,3.63
2017-11-27T10:51:19.411Z,3.70
2017-11-27T10:53:48.443Z,3.80
2017-11-27T10:56:16.696Z,3.97
2017-11-27T10:58:44.970Z,3.50
2017-11-27T11:01:13.285Z,6.43
2017-11-27T11:03:41.587Z,6.67
2017-11-27T11:06:10.606Z,3.73
2017-11-27T11:08:38.858Z,3.90
2017-11-27T11:11:07.902Z,3.40
2017-11-27T11:13:36.148Z,3.70
2017-11-27T11:16:04.428Z,3.70
2017-11-27T11:18:32.688Z,3.53
2017-11-27T11:21:01.730Z,3.23
2017-11-27T11:23:29.974Z,3.27
2017-11-27T11:25:58.221Z,4.00
2017-11-27T11:28:27.993Z,3.50
2017-11-27T11:30:56.247Z,3.60
2017-11-27T11:33:24.533Z,2.90
2017-11-27T11:35:52.925Z,3.30
2017-11-27T11:38:21.222Z,3.13
2017-11-27T11:40:49.492Z,3.30
2017-11-27T11:43:17.740Z,2.83
2017-11-27T11:45:46.017Z,2.87
2017-11-27T11:48:14.270Z,2.60
2017-11-27T11:50:43.326Z,2.93
2017-11-27T11:53:11.601Z,2.73
2017-11-27T11:55:39.857Z,2.57
2017-11-27T11:58:08.125Z,2.00
2017-11-27T12:00:36.377Z,3.23
2017-11-27T12:03:05.531Z,3.20
2017-11-27T12:05:33.775Z,2.80
2017-11-27T12:08:02.050Z,2.40
2017-11-27T12:10:30.301Z,2.37
2017-11-27T12:12:59.313Z,2.93
2017-11-27T12:15:27.734Z,1.97
2017-11-27T12:17:55.982Z,3.07
2017-11-27T12:20:24.248Z,2.80
2017-11-27T12:22:52.505Z,2.10
2017-11-27T12:25:21.566Z,2.87
2017-11-27T12:27:49.824Z,2.23
2017-11-27T12:30:18.077Z,2.47
2017-11-27T12:32:46.353Z,2.37
2017-11-27T12:35:14.659Z,2.67
2017-11-27T12:37:42.933Z,2.07
2017-11-27T12:40:11.181Z,3.13
2017-11-27T12:42:39.511Z,2.53
2017-11-27T12:45:08.528Z,2.33
2017-11-27T12:47:37.553Z,2.80
2017-11-27T12:50:05.842Z,2.23
2017-11-27T12:52:34.089Z,2.93
2017-11-27T12:55:02.363Z,2.63
2017-11-27T12:57:31.381Z,3.03
2017-11-27T12:59:59.665Z,3.07
2017-11-27T13:02:27.909Z,2.30
2017-11-27T13:04:56.945Z,3.17
2017-11-27T13:07:25.218Z,2.63
2017-11-27T13:09:53.470Z,2.90
2017-11-27T13:12:21.749Z,2.93
2017-11-27T13:14:50.654Z,2.53
2017-11-27T13:17:20.393Z,2.57
2017-11-27T13:19:49.425Z,2.80
2017-11-27T13:22:18.493Z,2.50
2017-11-27T13:24:46.771Z,2.20
2017-11-27T13:27:15.017Z,2.80
2017-11-27T13:29:43.302Z,4.87
2017-11-27T13:32:12.290Z,2.70
2017-11-27T13:34:40.545Z,2.80
2017-11-27T13:37:08.818Z,2.80
2017-11-27T13:39:37.140Z,2.73
2017-11-27T13:42:05.422Z,1.73
2017-11-27T13:44:33.672Z,2.30
2017-11-27T13:47:01.927Z,1.93
2017-11-27T13:49:30.189Z,2.27
2017-11-27T13:51:59.242Z,2.43
2017-11-27T13:54:27.526Z,2.20
2017-11-27T13:56:55.795Z,2.23
2017-11-27T13:59:24.045Z,2.33
2017-11-27T14:01:52.321Z,2.20
2017-11-27T14:04:20.566Z,2.33
2017-11-27T14:06:49.629Z,2.80
2017-11-27T14:09:17.877Z,1.73
2017-11-27T14:11:46.128Z,2.30
2017-11-27T14:14:14.411Z,2.23
2017-11-27T14:16:42.655Z,1.93
2017-11-27T14:19:10.947Z,2.13
2017-11-27T14:21:39.961Z,2.70
2017-11-27T14:24:08.242Z,2.10
2017-11-27T14:26:36.493Z,2.40
2017-11-27T14:29:05.512Z,2.43
2017-11-27T14:31:33.781Z,2.20
2017-11-27T14:34:02.032Z,2.30
2017-11-27T14:36:31.091Z,2.50
2017-11-27T14:38:59.341Z,2.43
2017-11-27T14:41:27.590Z,3.17
2017-11-27T14:43:56.621Z,4.77
2017-11-27T14:46:24.878Z,3.10
2017-11-27T14:48:53.169Z,3.13
2017-11-27T14:51:21.413Z,2.90
2017-11-27T14:53:50.456Z,2.40
2017-11-27T14:56:18.700Z,2.77
2017-11-27T14:58:46.962Z,1.80
2017-11-27T15:01:15.997Z,2.23
2017-11-27T15:03:44.252Z,2.50
2017-11-27T15:06:12.523Z,1.63
2017-11-27T15:08:40.769Z,1.80
2017-11-27T15:11:09.832Z,1.80
2017-11-27T15:13:38.081Z,1.83
2017-11-27T15:16:06.335Z,2.67
2017-11-27T15:18:35.376Z,2.50
2017-11-27T15:21:03.630Z,2.40
2017-11-27T15:23:31.893Z,1.80
2017-11-27T15:26:00.149Z,2.57
2017-11-27T15:28:28.398Z,2.73
2017-11-27T15:30:56.678Z,2.73
2017-11-27T15:33:24.934Z,2.80
2017-11-27T15:35:53.206Z,2.50
2017-11-27T15:38:21.521Z,2.93
2017-11-27T15:40:50.591Z,2.50
2017-11-27T15:43:19.612Z,2.03
2017-11-27T15:45:47.914Z,3.20
2017-11-27T15:48:16.220Z,2.67
2017-11-27T15:50:44.509Z,2.43
2017-11-27T15:53:12.804Z,3.10
2017-11-27T15:55:41.064Z,3.33
2017-11-27T15:58:10.155Z,3.30
2017-11-27T16:00:39.933Z,2.30
2017-11-27T16:03:08.224Z,2.70
2017-11-27T16:05:36.514Z,2.43
2017-11-27T16:08:04.769Z,2.97
2017-11-27T16:10:33.114Z,3.30
2017-11-27T16:13:02.142Z,2.67
2017-11-27T16:15:30.483Z,3.60
2017-11-27T16:17:58.766Z,2.60
2017-11-27T16:20:27.013Z,3.23
2017-11-27T16:22:55.309Z,2.83
2017-11-27T16:25:23.681Z,2.70
2017-11-27T16:27:51.942Z,2.87
2017-11-27T16:30:20.213Z,2.60
2017-11-27T16:32:48.458Z,3.50
2017-11-27T16:35:16.743Z,3.60
2017-11-27T16:37:44.988Z,2.60
2017-11-27T16:40:13.993Z,2.27
2017-11-27T16:42:43.038Z,2.60
2017-11-27T16:45:11.301Z,2.53
2017-11-27T16:47:39.605Z,2.97
2017-11-27T16:50:07.866Z,2.37
2017-11-27T16:52:36.154Z,2.37
2017-11-27T16:55:04.435Z,2.77
2017-11-27T16:57:32.691Z,2.50
2017-11-27T17:00:00.994Z,3.50
2017-11-27T17:02:29.254Z,2.70
2017-11-27T17:04:57.521Z,3.60
2017-11-27T17:07:26.641Z,2.60
2017-11-27T17:09:54.910Z,2.77
2017-11-27T17:12:23.191Z,3.20
2017-11-27T17:14:51.445Z,2.97
2017-11-27T17:17:19.757Z,2.60
2017-11-27T17:19:48.019Z,3.13
2017-11-27T17:22:16.281Z,2.60
2017-11-27T17:24:44.585Z,3.27
2017-11-27T17:27:12.851Z,3.07
2017-11-27T17:29:41.126Z,2.67
2017-11-27T17:32:09.378Z,3.63
2017-11-27T17:34:37.690Z,3.10
2017-11-27T17:37:05.966Z,3.13
2017-11-27T17:39:34.229Z,2.63
2017-11-27T17:42:02.504Z,3.73
2017-11-27T17:44:30.804Z,2.90
2017-11-27T17:46:59.049Z,3.10
2017-11-27T17:49:27.321Z,3.70
2017-11-27T17:51:55.597Z,3.60
2017-11-27T17:54:23.897Z,2.83
2017-11-27T17:56:52.161Z,3.97
2017-11-27T17:59:20.430Z,3.93
2017-11-27T18:01:48.709Z,4.93
2017-11-27T18:04:16.964Z,4.50
2017-11-27T18:06:46.014Z,4.30
2017-11-27T18:09:14.286Z,3.40
2017-11-27T18:11:42.525Z,3.10
2017-11-27T18:14:10.802Z,3.77
2017-11-27T18:16:39.065Z,3.10
2017-11-27T18:19:07.361Z,3.50
2017-11-27T18:21:35.609Z,3.87
2017-11-27T18:24:04.654Z,4.13
2017-11-27T18:26:32.949Z,2.80
2017-11-27T18:29:01.206Z,4.40
2017-11-27T18:31:29.607Z,3.40
2017-11-27T18:33:57.859Z,4.07
2017-11-27T18:36:26.108Z,4.80
2017-11-27T18:38:54.390Z,3.30
2017-11-27T18:41:22.644Z,3.20
2017-11-27T18:43:51.690Z,3.20
2017-11-27T18:46:19.961Z,3.33
2017-11-27T18:48:48.202Z,2.73
2017-11-27T18:51:16.563Z,3.20
2017-11-27T18:53:45.573Z,3.20
2017-11-27T18:56:13.853Z,3.40
2017-11-27T18:58:42.110Z,3.50
2017-11-27T19:01:10.365Z,2.93
2017-11-27T19:03:39.402Z,3.30
2017-11-27T19:06:07.696Z,3.20
2017-11-27T19:08:35.967Z,3.23
2017-11-27T19:11:04.239Z,3.53
2017-11-27T19:13:32.515Z,2.90
2017-11-27T19:16:00.797Z,4.63
2017-11-27T19:18:29.046Z,2.50
2017-11-27T19:20:57.317Z,2.87
2017-11-27T19:23:25.577Z,3.77
2017-11-27T19:25:54.629Z,2.90
2017-11-27T19:28:22.914Z,3.23
2017-11-27T19:30:51.165Z,2.40
2017-11-27T19:33:19.459Z,2.20
2017-11-27T19:35:47.721Z,2.83
2017-11-27T19:38:15.993Z,3.20
2017-11-27T19:40:44.394Z,2.80
2017-11-27T19:43:12.640Z,3.47
2017-11-27T19:45:40.930Z,3.03
2017-11-27T19:48:09.166Z,3.43
2017-11-27T19:50:38.280Z,2.00
2017-11-27T19:53:06.531Z,3.73
2017-11-27T19:55:35.585Z,3.83
2017-11-27T19:58:03.894Z,2.70
2017-11-27T20:00:32.972Z,3.00
2017-11-27T20:03:01.274Z,2.80
2017-11-27T20:05:29.621Z,2.50
2017-11-27T20:07:57.940Z,3.03
2017-11-27T20:10:26.986Z,3.30
2017-11-27T20:12:55.500Z,2.97
2017-11-27T20:15:23.848Z,3.10
2017-11-27T20:17:52.155Z,2.93
2017-11-27T20:20:21.917Z,9.03
2017-11-27T20:22:50.222Z,3.33
2017-11-27T20:25:18.506Z,2.27
2017-11-27T20:27:46.765Z,2.80
2017-11-27T20:30:15.029Z,2.30
2017-11-27T20:32:43.278Z,2.70
2017-11-27T20:35:11.608Z,3.30
2017-11-27T20:37:39.899Z,3.27
2017-11-27T20:40:08.132Z,3.17
2017-11-27T20:42:36.437Z,3.07
2017-11-27T20:45:04.688Z,3.77
2017-11-27T20:47:32.988Z,3.03
2017-11-27T20:50:01.243Z,3.50
2017-11-27T20:52:29.490Z,3.50
2017-11-27T20:54:58.532Z,3.10
2017-11-27T20:57:26.833Z,3.20
2017-11-27T20:59:55.882Z,3.50
2017-11-27T21:02:24.133Z,3.40
2017-11-27T21:04:53.898Z,3.17
2017-11-27T21:07:22.174Z,3.10
2017-11-27T21:09:50.451Z,3.10
2017-11-27T21:12:18.761Z,3.50
2017-11-27T21:14:47.103Z,3.97
2017-11-27T21:17:15.349Z,3.33
2017-11-27T21:19:43.633Z,3.40
2017-11-27T21:22:11.886Z,2.73
2017-11-27T21:24:40.947Z,12.27
2017-11-27T21:27:10.008Z,3.50
2017-11-27T21:29:38.267Z,2.90
2017-11-27T21:32:06.534Z,2.80
2017-11-27T21:34:34.806Z,2.57
2017-11-27T21:37:03.858Z,2.87
2017-11-27T21:39:32.117Z,2.57
2017-11-27T21:42:00.361Z,3.50
2017-11-27T21:44:28.633Z,2.67
2017-11-27T21:46:56.889Z,2.97
2017-11-27T21:49:25.230Z,3.00
2017-11-27T21:51:53.513Z,2.43
2017-11-27T21:54:21.791Z,2.00
2017-11-27T21:56:50.054Z,2.77
2017-11-27T21:59:18.309Z,2.00
2017-11-27T22:01:46.589Z,2.40
2017-11-27T22:04:14.830Z,2.30
2017-11-27T22:06:43.133Z,3.03
2017-11-27T22:09:11.420Z,2.00
2017-11-27T22:11:39.661Z,3.10
2017-11-27T22:14:08.725Z,2.30
2017-11-27T22:16:37.009Z,2.03
2017-11-27T22:19:05.245Z,1.93
2017-11-27T22:21:33.519Z,2.23
2017-11-27T22:24:01.797Z,2.00
2017-11-27T22:26:30.082Z,2.17
2017-11-27T22:28:58.332Z,2.70
2017-11-27T22:31:27.408Z,2.20
2017-11-27T22:33:55.682Z,3.43
2017-11-27T22:36:23.937Z,2.20
2017-11-27T22:38:52.269Z,1.67
2017-11-27T22:41:20.594Z,2.20
2017-11-27T22:43:48.877Z,1.73
2017-11-27T22:46:17.877Z,1.93
2017-11-27T22:48:46.140Z,1.77
2017-11-27T22:51:14.421Z,2.20
2017-11-27T22:53:42.670Z,1.30
2017-11-27T22:56:10.937Z,2.10
2017-11-27T22:58:39.287Z,2.23
2017-11-27T23:01:08.654Z,2.17
2017-11-27T23:03:38.541Z,2.77
2017-11-27T23:06:06.824Z,2.40
2017-11-27T23:08:35.074Z,2.07
2017-11-27T23:11:03.348Z,2.30
2017-11-27T23:13:32.365Z,2.27
2017-11-27T23:16:00.670Z,2.40
2017-11-27T23:18:28.913Z,2.77
2017-11-27T23:20:57.165Z,2.93
2017-11-27T23:23:26.194Z,2.37
2017-11-27T23:25:54.545Z,2.93
2017-11-27T23:28:23.588Z,2.20
2017-11-27T23:30:51.836Z,2.30
2017-11-27T23:33:20.086Z,2.50
2017-11-27T23:35:49.122Z,3.80
2017-11-27T23:38:17.554Z,3.70
2017-11-27T23:40:46.585Z,2.40
2017-11-27T23:43:15.678Z,2.33
2017-11-27T23:45:44.498Z,2.13
2017-11-27T23:48:12.753Z,2.50
2017-11-27T23:50:41.001Z,2.40
2017-11-27T23:53:09.324Z,2.07
2017-11-27T23:55:37.578Z,2.27
2017-11-27T23:58:05.833Z,1.87
